KMSS/MSS METAR and TAF weather

Enter ICAO airport designator
Station Type Date Time Source
KMSS METAR 2019/10/23 11:53 UTC NOAA

KMSS 231153Z AUTO 21003KT 10SM FEW029 SCT034 SCT080 07/06 A2983 RMK AO2 SLP104 60000 70057 T00670056 10133 20061 51011


Station Type Date Time Source
KMSS Decoded METAR 2019/10/23 11:53 UTC NOAA

MASSENA INTERNATIONAL -RICHARDS FLD, NY, United States (KMSS) 44-56N 074-51W 66M
Oct 23, 2019 - 07:53 AM EDT / 2019.10.23 1153 UTC
Wind: from the SSW (210 degrees) at 3 MPH (3 KT):0
Visibility: 10 mile(s):0
Sky conditions: partly cloudy
Temperature: 44.1 F (6.7 C)
Dew Point: 42.1 F (5.6 C)
Relative Humidity: 92%
Pressure (altimeter): 29.83 in. Hg (1010 hPa)
Pressure tendency: 0.03 inches (1.1 hPa) higher than three hours ago
ob: KMSS 231153Z AUTO 21003KT 10SM FEW029 SCT034 SCT080 07/06 A2983 RMK AO2 SLP104 60000 70057 T00670056 10133 20061 51011
cycle: 12

Station Type Date Time Source
KMSS TAF 2019/10/23 12:39 UTC NOAA

TAF KMSS 231135Z 2312/2412 00000KT P6SM SKC
FM231500 23010G20KT P6SM FEW080
FM231800 24014G22KT P6SM SCT080
FM240100 23007KT P6SM SCT080 WS020/25040KT
FM240700 23005KT P6SM FEW250

Example: see airport list